Time;durP1;ratioP1;P1;durP2;ratioP2;P2;SDS_P1;SDS_P2;PMS_P1;PMS_P2;Temp;Humidity;BMP_temperature;BMP_pressure;BME280_temperature;BME280_humidity;BME280_pressure;Samples;Min_cycle;Max_cycle;Signal;HPM_P1;HPM_P2
2022/04/05 00:00:28;;;;;;;8.33;2.30;;;8.70;99.90;;;;;;5044091;28;20209;-79
2022/04/05 00:02:55;;;;;;;4.63;1.30;;;8.70;99.90;;;;;;5045848;28;20198;-80
2022/04/05 00:05:23;;;;;;;3.60;1.00;;;8.70;99.90;;;;;;5045908;28;20333;-78
2022/04/05 00:07:50;;;;;;;5.17;1.50;;;8.70;99.90;;;;;;5046262;28;20228;-78
2022/04/05 00:10:17;;;;;;;2.63;0.90;;;8.70;99.90;;;;;;5045720;28;20206;-77
2022/04/05 00:12:44;;;;;;;2.90;1.30;;;8.60;99.90;;;;;;5045311;28;20266;-79
2022/04/05 00:15:11;;;;;;;5.53;1.50;;;8.60;99.90;;;;;;5044750;28;20225;-77
2022/04/05 00:17:39;;;;;;;2.60;1.03;;;8.60;99.90;;;;;;5045546;28;20228;-78
2022/04/05 00:20:07;;;;;;;3.63;1.20;;;8.70;99.90;;;;;;5044969;28;20231;-77
2022/04/05 00:22:36;;;;;;;2.83;1.13;;;8.70;99.90;;;;;;5044775;28;20202;-81
2022/04/05 00:25:04;;;;;;;9.47;1.93;;;8.70;99.90;;;;;;5045824;28;20221;-77
2022/04/05 00:27:31;;;;;;;5.80;1.47;;;8.80;99.90;;;;;;5045482;28;20198;-77
2022/04/05 00:29:59;;;;;;;3.30;1.00;;;8.80;99.90;;;;;;5046128;28;20215;-76
2022/04/05 00:32:26;;;;;;;3.40;1.43;;;8.70;99.90;;;;;;5045116;28;20244;-78
2022/04/05 00:34:52;;;;;;;3.37;1.37;;;8.70;99.90;;;;;;5044865;28;20228;-78
2022/04/05 00:37:19;;;;;;;5.60;1.60;;;8.60;99.90;;;;;;5045075;28;20222;-77
2022/04/05 00:39:50;;;;;;;5.10;1.20;;;8.70;99.90;;;;;;5045286;28;20554;-76
2022/04/05 00:42:17;;;;;;;4.73;1.30;;;8.70;99.90;;;;;;5044367;28;20285;-77
2022/04/05 00:44:44;;;;;;;4.40;1.40;;;8.60;99.90;;;;;;5045612;28;20216;-78
2022/04/05 00:47:18;;;;;;;5.07;1.60;;;8.60;99.90;;;;;;5046353;28;20206;-76
2022/04/05 00:49:46;;;;;;;10.60;2.63;;;8.60;99.90;;;;;;5064065;28;20200;-77
2022/04/05 00:52:15;;;;;;;5.47;1.93;;;8.60;99.90;;;;;;5045673;28;20221;-78
2022/04/05 00:54:44;;;;;;;11.77;2.37;;;8.60;99.90;;;;;;5043841;28;20305;-78
2022/04/05 00:57:14;;;;;;;9.43;1.80;;;8.60;99.90;;;;;;5043993;28;20206;-77
2022/04/05 00:59:43;;;;;;;6.27;2.10;;;8.60;99.90;;;;;;5045304;28;20225;-78
2022/04/05 01:02:14;;;;;;;5.53;1.73;;;8.60;99.90;;;;;;5044363;28;20197;-78
2022/04/05 01:04:42;;;;;;;7.63;1.40;;;8.60;99.90;;;;;;5044110;28;20244;-79
2022/04/05 01:07:11;;;;;;;4.87;1.20;;;8.70;99.90;;;;;;5045059;28;20348;-79
2022/04/05 01:09:39;;;;;;;5.03;1.73;;;8.70;99.90;;;;;;5044847;28;20232;-77
2022/04/05 01:12:07;;;;;;;6.43;1.73;;;8.60;99.90;;;;;;5043754;28;20291;-77
2022/04/05 01:14:36;;;;;;;2.57;1.20;;;8.60;99.90;;;;;;5044264;28;20209;-78
2022/04/05 01:17:04;;;;;;;5.63;1.40;;;8.60;99.90;;;;;;5044507;28;20198;-76
2022/04/05 01:19:33;;;;;;;3.13;1.20;;;8.60;99.90;;;;;;5043830;28;20364;-77
2022/04/05 01:22:00;;;;;;;7.80;1.73;;;8.60;99.90;;;;;;5043976;28;20786;-77
2022/04/05 01:24:29;;;;;;;4.90;2.00;;;8.60;99.90;;;;;;5043664;28;20198;-78
2022/04/05 01:26:57;;;;;;;4.80;2.50;;;8.70;99.90;;;;;;5043986;28;20206;-76
2022/04/05 01:29:26;;;;;;;5.60;2.97;;;8.60;99.90;;;;;;5043982;28;20580;-78
2022/04/05 01:31:55;;;;;;;5.63;1.90;;;8.70;99.90;;;;;;5043853;28;20221;-79
2022/04/05 01:34:24;;;;;;;4.30;1.70;;;8.70;99.90;;;;;;5044727;28;20213;-77
2022/04/05 01:36:53;;;;;;;6.37;2.30;;;8.70;99.90;;;;;;5045121;28;20225;-77
2022/04/05 01:39:21;;;;;;;7.37;3.13;;;8.60;99.90;;;;;;5054770;28;20229;-78
2022/04/05 01:41:53;;;;;;;8.27;4.33;;;8.60;99.90;;;;;;5053227;28;20218;-77
2022/04/05 01:44:20;;;;;;;7.20;2.30;;;8.60;99.90;;;;;;5048431;28;20588;-77
2022/04/05 01:46:47;;;;;;;2.97;1.67;;;8.60;99.90;;;;;;5054809;28;20289;-78
2022/04/05 01:49:14;;;;;;;8.63;2.23;;;8.60;99.90;;;;;;5055886;28;20520;-78
2022/04/05 01:51:42;;;;;;;5.83;1.30;;;8.50;99.90;;;;;;5048379;28;20205;-78
2022/04/05 01:54:11;;;;;;;4.47;1.60;;;8.50;99.90;;;;;;5054529;28;20211;-78
2022/04/05 01:56:42;;;;;;;4.47;1.87;;;8.60;99.90;;;;;;5046483;28;20224;-78
2022/04/05 01:59:11;;;;;;;5.23;2.03;;;8.60;99.90;;;;;;5063856;28;20190;-78
2022/04/05 02:01:39;;;;;;;6.40;2.20;;;8.60;99.90;;;;;;5061625;28;20215;-79
2022/04/05 02:04:06;;;;;;;7.27;3.03;;;8.60;99.90;;;;;;5063993;28;20501;-77
2022/04/05 02:06:32;;;;;;;4.10;2.30;;;8.60;99.90;;;;;;5023684;28;20218;-77
2022/04/05 02:08:59;;;;;;;5.30;2.43;;;8.60;99.90;;;;;;5024219;28;20203;-77
2022/04/05 02:11:26;;;;;;;6.17;2.80;;;8.60;99.90;;;;;;5024102;28;20207;-79
2022/04/05 02:13:53;;;;;;;5.77;3.67;;;8.60;99.90;;;;;;5023065;28;20223;-77
2022/04/05 02:16:21;;;;;;;10.93;4.83;;;8.60;99.90;;;;;;5024261;28;20210;-78
2022/04/05 02:18:48;;;;;;;7.67;4.83;;;8.70;99.90;;;;;;5023430;28;20217;-79
2022/04/05 02:21:15;;;;;;;7.33;5.50;;;8.70;99.90;;;;;;5024396;28;20207;-79
2022/04/05 02:23:42;;;;;;;6.40;5.27;;;8.70;99.90;;;;;;5025846;28;20221;-79
2022/04/05 02:26:10;;;;;;;8.83;5.73;;;8.70;99.90;;;;;;5026686;28;20211;-78
2022/04/05 02:28:37;;;;;;;6.63;4.87;;;8.70;99.90;;;;;;5030799;28;20220;-78
2022/04/05 02:31:04;;;;;;;7.77;5.73;;;8.70;99.90;;;;;;5033484;28;20218;-78
2022/04/05 02:33:32;;;;;;;9.07;4.30;;;8.70;99.90;;;;;;5028813;28;20230;-78
2022/04/05 02:35:59;;;;;;;6.43;2.70;;;8.70;99.90;;;;;;5026189;28;20222;-77
2022/04/05 02:38:26;;;;;;;5.37;2.20;;;8.60;99.90;;;;;;5027448;28;20221;-79
2022/04/05 02:40:53;;;;;;;5.77;1.97;;;8.60;99.90;;;;;;5027648;28;20207;-78
2022/04/05 02:43:20;;;;;;;5.53;2.20;;;8.60;99.90;;;;;;5026651;28;20257;-78
2022/04/05 02:45:47;;;;;;;9.10;2.67;;;8.60;99.90;;;;;;5027547;28;20207;-79
2022/04/05 02:48:14;;;;;;;6.90;2.77;;;8.70;99.90;;;;;;5036641;28;20356;-78
2022/04/05 02:50:43;;;;;;;6.17;2.17;;;8.60;99.90;;;;;;5046989;28;20221;-77
2022/04/05 02:53:09;;;;;;;3.73;2.33;;;8.70;99.90;;;;;;5040340;28;20230;-78
2022/04/05 02:55:36;;;;;;;3.53;2.03;;;8.70;99.90;;;;;;5026884;28;20427;-78
2022/04/05 02:58:03;;;;;;;7.93;2.30;;;8.70;99.90;;;;;;5027567;28;20247;-78
2022/04/05 03:00:31;;;;;;;3.83;1.70;;;8.60;99.90;;;;;;5026530;28;20210;-78
2022/04/05 03:02:58;;;;;;;6.97;1.70;;;8.60;99.90;;;;;;5026465;28;20268;-78
2022/04/05 03:05:25;;;;;;;6.00;1.37;;;8.60;99.90;;;;;;5037487;28;20252;-79
2022/04/05 03:07:54;;;;;;;6.73;2.10;;;8.60;99.90;;;;;;5047196;28;20209;-77
2022/04/05 03:10:20;;;;;;;3.97;1.73;;;8.60;99.90;;;;;;5046251;28;20233;-77
2022/04/05 03:12:47;;;;;;;3.67;2.10;;;8.60;99.90;;;;;;5047209;28;20226;-78
2022/04/05 03:15:14;;;;;;;4.17;2.63;;;8.50;99.90;;;;;;5047135;28;20237;-78
2022/04/05 03:17:45;;;;;;;4.10;1.87;;;8.60;99.90;;;;;;5046856;28;20204;-79
2022/04/05 03:20:13;;;;;;;4.90;2.07;;;8.60;99.90;;;;;;5047029;28;20202;-77
2022/04/05 03:22:40;;;;;;;2.70;1.77;;;8.50;99.90;;;;;;5046320;28;20229;-79
2022/04/05 03:25:10;;;;;;;5.60;2.43;;;8.50;99.90;;;;;;5046440;28;20321;-78
2022/04/05 03:27:40;;;;;;;4.17;2.43;;;8.50;99.90;;;;;;5045785;28;20527;-79
2022/04/05 03:30:08;;;;;;;4.30;2.80;;;8.50;99.90;;;;;;5046473;28;20221;-78
2022/04/05 03:32:35;;;;;;;7.37;3.37;;;8.50;99.90;;;;;;5046126;28;20253;-79
2022/04/05 03:35:02;;;;;;;5.57;3.90;;;8.50;99.90;;;;;;5045934;28;20194;-79
2022/04/05 03:37:29;;;;;;;7.87;5.13;;;8.50;99.90;;;;;;5045581;28;20232;-79
2022/04/05 03:39:55;;;;;;;10.60;5.40;;;8.50;99.90;;;;;;5046117;28;20206;-79
2022/04/05 03:42:24;;;;;;;7.30;5.20;;;8.50;99.90;;;;;;5045122;28;20205;-79
2022/04/05 03:44:50;;;;;;;10.10;6.33;;;8.50;99.90;;;;;;5045818;28;20202;-77
2022/04/05 03:47:17;;;;;;;9.60;5.27;;;8.50;99.90;;;;;;5049229;28;20218;-77
2022/04/05 03:49:44;;;;;;;7.27;5.20;;;8.50;99.90;;;;;;5064442;28;20201;-79
2022/04/05 03:52:11;;;;;;;10.27;5.90;;;8.50;99.90;;;;;;5045551;28;20202;-77
2022/04/05 03:54:38;;;;;;;12.87;5.97;;;8.60;99.90;;;;;;5045921;28;20257;-78
2022/04/05 03:57:05;;;;;;;14.13;6.00;;;8.50;99.90;;;;;;5045575;28;20202;-76
2022/04/05 03:59:33;;;;;;;9.77;5.30;;;8.60;99.90;;;;;;5045753;28;20701;-78
2022/04/05 04:02:00;;;;;;;10.03;5.43;;;8.60;99.90;;;;;;5066318;28;20197;-76
2022/04/05 04:04:27;;;;;;;10.13;4.80;;;8.60;99.90;;;;;;5066394;28;20741;-77
2022/04/05 04:06:53;;;;;;;12.60;5.40;;;8.60;99.90;;;;;;5065903;28;20208;-77
2022/04/05 04:09:20;;;;;;;9.17;5.10;;;8.60;99.90;;;;;;5065560;28;20312;-77
2022/04/05 04:11:48;;;;;;;15.57;6.27;;;8.60;99.90;;;;;;5066831;28;20208;-78
2022/04/05 04:14:16;;;;;;;11.40;5.17;;;8.60;99.90;;;;;;5066196;28;20231;-79
2022/04/05 04:16:44;;;;;;;10.90;5.50;;;8.60;99.90;;;;;;5066559;28;20795;-77
2022/04/05 04:19:11;;;;;;;11.27;5.77;;;8.60;99.90;;;;;;5049776;28;20849;-77
2022/04/05 04:21:37;;;;;;;10.03;5.17;;;8.60;99.90;;;;;;5056180;28;20274;-78
2022/04/05 04:24:04;;;;;;;11.67;5.90;;;8.60;99.90;;;;;;5058147;28;20212;-78
2022/04/05 04:26:31;;;;;;;10.87;5.60;;;8.60;99.90;;;;;;5066398;28;20217;-77
2022/04/05 04:29:02;;;;;;;12.97;6.00;;;8.60;99.90;;;;;;5070192;28;20201;-78
2022/04/05 04:31:28;;;;;;;10.00;5.40;;;8.60;99.90;;;;;;5061611;28;20223;-77
2022/04/05 04:33:57;;;;;;;9.03;5.90;;;8.60;99.90;;;;;;5044597;28;20564;-78
2022/04/05 04:36:24;;;;;;;11.63;5.90;;;8.70;99.90;;;;;;5045748;28;20217;-79
2022/04/05 04:38:52;;;;;;;11.93;7.73;;;8.70;99.90;;;;;;5045037;28;20210;-80
2022/04/05 04:41:20;;;;;;;16.10;10.03;;;8.70;99.90;;;;;;5044729;28;20217;-76
2022/04/05 04:43:47;;;;;;;18.43;10.53;;;8.80;99.90;;;;;;5045455;28;20194;-80
2022/04/05 04:46:14;;;;;;;19.97;11.93;;;8.80;99.90;;;;;;5044137;28;20213;-79
2022/04/05 04:48:41;;;;;;;20.93;13.83;;;8.80;99.90;;;;;;5058563;28;20216;-80
2022/04/05 04:51:09;;;;;;;22.60;14.30;;;8.90;99.90;;;;;;5063174;28;20205;-77
2022/04/05 04:53:36;;;;;;;21.27;14.53;;;9.00;99.90;;;;;;5044804;28;20768;-77
2022/04/05 04:56:03;;;;;;;24.53;14.70;;;9.00;99.90;;;;;;5046123;28;20211;-78
2022/04/05 04:58:30;;;;;;;24.97;16.07;;;9.00;99.90;;;;;;5045882;28;20206;-79
2022/04/05 05:00:58;;;;;;;25.60;16.13;;;9.10;99.90;;;;;;5045658;28;20304;-79
2022/04/05 05:03:25;;;;;;;27.43;17.17;;;9.20;99.90;;;;;;5044126;28;20194;-79
2022/04/05 05:05:53;;;;;;;34.30;19.03;;;9.20;99.90;;;;;;5059639;28;20244;-81
2022/04/05 05:08:22;;;;;;;34.27;19.63;;;9.30;99.90;;;;;;5056243;28;20209;-80
2022/04/05 05:10:49;;;;;;;30.47;18.03;;;9.30;99.90;;;;;;5043174;28;20209;-80
2022/04/05 05:13:17;;;;;;;32.43;18.13;;;9.40;99.90;;;;;;5043827;28;20222;-79
2022/04/05 05:15:44;;;;;;;34.03;16.63;;;9.40;99.90;;;;;;5045271;28;20206;-82
2022/04/05 05:18:11;;;;;;;30.17;17.27;;;9.50;99.90;;;;;;5044313;28;20528;-80
2022/04/05 05:20:38;;;;;;;33.03;17.43;;;9.60;99.90;;;;;;5046171;28;20618;-79
2022/04/05 05:23:05;;;;;;;28.30;16.50;;;9.60;99.90;;;;;;5059425;28;20612;-80
2022/04/05 05:25:33;;;;;;;27.77;15.27;;;9.70;99.90;;;;;;5064150;28;20656;-82
2022/04/05 05:28:00;;;;;;;30.97;15.57;;;9.60;99.90;;;;;;5063752;28;20711;-82
2022/04/05 05:30:27;;;;;;;25.00;13.93;;;9.60;99.90;;;;;;5055049;28;20205;-79
2022/04/05 05:32:55;;;;;;;29.87;13.37;;;9.60;99.90;;;;;;5044609;28;20209;-79
2022/04/05 05:35:23;;;;;;;23.77;12.37;;;9.70;99.90;;;;;;5044295;28;20221;-80
2022/04/05 05:37:51;;;;;;;26.80;12.50;;;9.70;99.90;;;;;;5043434;28;20193;-80
2022/04/05 05:40:20;;;;;;;20.40;11.30;;;9.70;99.90;;;;;;5044034;28;20213;-79
2022/04/05 05:42:53;;;;;;;23.13;10.10;;;9.70;99.90;;;;;;5044391;28;20224;-79
2022/04/05 05:45:21;;;;;;;20.70;9.30;;;9.70;99.90;;;;;;5043728;28;20208;-80
2022/04/05 05:47:48;;;;;;;17.57;7.87;;;9.70;99.90;;;;;;5051230;28;20204;-80
2022/04/05 05:50:15;;;;;;;23.67;9.80;;;9.70;99.90;;;;;;5061224;28;20216;-81
2022/04/05 05:52:42;;;;;;;16.83;7.20;;;9.80;99.90;;;;;;5045002;28;20202;-81
2022/04/05 05:55:10;;;;;;;17.53;7.77;;;9.80;99.90;;;;;;5044640;28;20229;-80
2022/04/05 05:57:37;;;;;;;14.27;7.50;;;9.80;99.90;;;;;;5044469;28;20281;-78
2022/04/05 06:00:07;;;;;;;21.43;8.33;;;9.80;99.90;;;;;;5048044;28;20213;-81
2022/04/05 06:02:38;;;;;;;23.43;7.43;;;9.80;99.90;;;;;;5047766;28;20209;-79
2022/04/05 06:05:06;;;;;;;15.43;7.20;;;9.80;99.90;;;;;;5048694;28;20257;-80
2022/04/05 06:07:34;;;;;;;25.63;9.23;;;9.80;99.90;;;;;;5048256;28;20216;-78
2022/04/05 06:10:01;;;;;;;23.30;6.90;;;9.80;99.90;;;;;;5047400;28;20680;-78
2022/04/05 06:12:28;;;;;;;20.27;7.03;;;9.80;99.90;;;;;;5046647;28;20206;-76
2022/04/05 06:14:54;;;;;;;17.87;7.50;;;9.90;99.90;;;;;;5066209;28;20217;-77
2022/04/05 06:17:24;;;;;;;17.40;6.03;;;9.90;99.90;;;;;;5068293;28;20201;-79
2022/04/05 06:19:51;;;;;;;17.23;4.77;;;9.90;99.90;;;;;;5052610;28;20216;-78
2022/04/05 06:22:18;;;;;;;14.13;4.90;;;9.90;99.90;;;;;;5048044;28;20198;-78
2022/04/05 06:24:46;;;;;;;15.90;4.40;;;10.00;99.90;;;;;;5048549;28;20206;-78
2022/04/05 06:27:13;;;;;;;13.27;4.13;;;10.00;99.90;;;;;;5047316;28;20217;-80
2022/04/05 06:29:39;;;;;;;13.43;4.40;;;10.00;99.90;;;;;;5047867;28;20202;-77
2022/04/05 06:32:07;;;;;;;18.43;5.70;;;10.00;99.90;;;;;;5047864;28;20209;-77
2022/04/05 06:34:35;;;;;;;17.77;5.90;;;10.00;99.90;;;;;;5047357;28;20233;-78
2022/04/05 06:37:02;;;;;;;17.43;5.63;;;10.00;99.90;;;;;;5048164;28;20253;-78
2022/04/05 06:39:29;;;;;;;21.37;6.03;;;10.00;99.90;;;;;;5047535;28;20212;-77
2022/04/05 06:41:56;;;;;;;16.33;6.87;;;10.10;99.90;;;;;;5049255;28;20860;-78
2022/04/05 06:44:23;;;;;;;21.37;6.83;;;10.10;99.90;;;;;;5054720;28;20193;-79
2022/04/05 06:46:50;;;;;;;16.20;5.87;;;10.10;99.90;;;;;;5048070;28;20221;-78
2022/04/05 06:49:17;;;;;;;17.10;7.27;;;10.10;99.90;;;;;;5065382;28;20252;-78
2022/04/05 06:51:45;;;;;;;16.60;6.63;;;10.10;99.90;;;;;;5062928;28;20254;-78
2022/04/05 06:54:12;;;;;;;17.20;6.73;;;10.10;99.90;;;;;;5046283;28;20633;-79
2022/04/05 06:56:39;;;;;;;22.77;7.30;;;10.20;99.90;;;;;;5047606;28;20209;-79
2022/04/05 06:59:05;;;;;;;18.53;6.90;;;10.20;99.90;;;;;;5046544;28;20220;-77
2022/04/05 07:01:33;;;;;;;18.70;7.13;;;10.20;99.90;;;;;;5045365;28;20657;-77
2022/04/05 07:04:00;;;;;;;15.20;6.10;;;10.20;99.90;;;;;;5047093;28;21097;-77
2022/04/05 07:06:26;;;;;;;20.80;6.67;;;10.20;99.90;;;;;;5046043;28;20747;-78
2022/04/05 07:08:55;;;;;;;26.50;6.80;;;10.10;99.90;;;;;;5046988;28;20218;-78
2022/04/05 07:11:21;;;;;;;21.07;7.57;;;10.20;99.90;;;;;;5046247;28;20201;-78
2022/04/05 07:13:48;;;;;;;21.60;8.47;;;10.20;99.90;;;;;;5047286;28;20234;-77
2022/04/05 07:16:15;;;;;;;21.33;6.63;;;10.20;99.90;;;;;;5046198;28;20213;-79
2022/04/05 07:18:42;;;;;;;14.77;6.30;;;10.20;99.90;;;;;;5047234;28;20202;-77
2022/04/05 07:21:08;;;;;;;18.00;7.07;;;10.20;99.90;;;;;;5047647;28;20206;-77
2022/04/05 07:23:37;;;;;;;18.27;7.80;;;10.30;99.90;;;;;;5047022;28;20770;-77
2022/04/05 07:26:05;;;;;;;17.50;6.20;;;10.30;99.90;;;;;;5047934;28;20929;-77
2022/04/05 07:28:32;;;;;;;25.37;6.93;;;10.40;99.90;;;;;;5046683;28;20856;-81
2022/04/05 07:30:58;;;;;;;19.80;5.23;;;10.40;99.90;;;;;;5047446;28;20210;-80
2022/04/05 07:33:25;;;;;;;19.77;6.30;;;10.40;99.90;;;;;;5046148;28;20544;-79
2022/04/05 07:35:52;;;;;;;16.70;5.93;;;10.40;99.90;;;;;;5046291;28;20229;-80
2022/04/05 07:38:19;;;;;;;14.70;5.40;;;10.50;99.90;;;;;;5046909;28;20216;-82
2022/04/05 07:40:52;;;;;;;19.13;6.00;;;10.50;99.90;;;;;;5047499;28;20198;-78
2022/04/05 07:43:22;;;;;;;18.70;5.83;;;10.60;99.90;;;;;;5047210;28;20316;-79
2022/04/05 07:45:50;;;;;;;15.43;5.83;;;10.60;99.90;;;;;;5047058;28;20194;-81
2022/04/05 07:48:17;;;;;;;28.00;8.40;;;10.70;99.90;;;;;;5057805;28;20201;-80
2022/04/05 07:50:44;;;;;;;22.17;7.13;;;10.70;99.90;;;;;;5066940;28;20244;-79
2022/04/05 07:53:11;;;;;;;13.53;6.07;;;10.70;99.90;;;;;;5068077;28;20204;-81
2022/04/05 07:55:38;;;;;;;20.90;5.83;;;10.70;99.90;;;;;;5058567;28;20225;-81
2022/04/05 07:58:05;;;;;;;19.33;7.10;;;10.80;99.90;;;;;;5046910;28;20368;-77
2022/04/05 08:00:33;;;;;;;15.17;6.13;;;10.80;99.90;;;;;;5046083;28;20209;-79
2022/04/05 08:03:00;;;;;;;16.87;6.33;;;10.80;99.90;;;;;;5046386;28;20217;-81
2022/04/05 08:05:27;;;;;;;20.20;6.00;;;10.80;99.90;;;;;;5045667;28;20237;-79
2022/04/05 08:07:55;;;;;;;16.30;6.00;;;10.80;99.90;;;;;;5046295;28;20202;-80
2022/04/05 08:10:22;;;;;;;16.07;6.17;;;10.90;99.90;;;;;;5045885;28;20241;-80
2022/04/05 08:12:50;;;;;;;19.33;6.37;;;11.10;99.90;;;;;;5046374;28;20206;-78
2022/04/05 08:15:19;;;;;;;17.27;6.10;;;11.20;99.90;;;;;;5046626;28;20225;-78
2022/04/05 08:17:47;;;;;;;15.73;5.30;;;11.20;99.90;;;;;;5046422;28;20217;-81
2022/04/05 08:20:14;;;;;;;12.30;5.63;;;11.10;99.90;;;;;;5045874;28;20241;-79
2022/04/05 08:22:41;;;;;;;19.53;6.90;;;11.00;99.90;;;;;;5046143;28;20225;-79
2022/04/05 08:25:10;;;;;;;22.10;6.77;;;11.00;99.90;;;;;;5045166;28;20595;-80
2022/04/05 08:27:37;;;;;;;15.53;5.43;;;10.90;99.90;;;;;;5044653;28;20567;-82
2022/04/05 08:30:05;;;;;;;15.50;5.83;;;10.90;99.90;;;;;;5057675;28;20325;-79
2022/04/05 08:32:34;;;;;;;13.07;5.83;;;11.00;99.90;;;;;;5047210;28;20210;-81
2022/04/05 08:35:02;;;;;;;14.70;5.77;;;11.00;99.90;;;;;;5056401;28;20383;-81
2022/04/05 08:37:29;;;;;;;15.03;6.60;;;11.00;99.90;;;;;;5065996;28;20224;-84
2022/04/05 08:39:56;;;;;;;11.77;5.93;;;11.00;99.90;;;;;;5067113;28;20216;-82
2022/04/05 08:42:24;;;;;;;17.10;6.67;;;11.00;99.90;;;;;;5067080;28;20233;-81
2022/04/05 08:44:52;;;;;;;17.17;6.43;;;11.00;99.90;;;;;;5052967;28;20206;-83
2022/04/05 08:47:21;;;;;;;13.17;7.37;;;11.00;99.90;;;;;;5046099;28;20232;-81
2022/04/05 08:49:50;;;;;;;17.53;7.07;;;11.00;99.90;;;;;;5047733;28;20213;-81
2022/04/05 08:52:18;;;;;;;20.70;7.97;;;11.00;99.90;;;;;;5046542;28;20209;-81
2022/04/05 08:54:45;;;;;;;16.23;6.47;;;11.00;99.90;;;;;;5047774;28;20237;-83
2022/04/05 08:57:12;;;;;;;21.93;7.70;;;11.00;99.90;;;;;;5047633;28;20205;-81
2022/04/05 08:59:39;;;;;;;17.10;6.30;;;11.10;99.90;;;;;;5048640;28;20437;-81
2022/04/05 09:02:06;;;;;;;13.80;6.23;;;11.20;99.90;;;;;;5047750;28;20190;-82
2022/04/05 09:04:33;;;;;;;17.67;6.50;;;11.20;99.90;;;;;;5047751;28;20520;-80
2022/04/05 09:07:20;;;;;;;16.67;6.23;;;11.30;99.90;;;;;;5047494;28;20204;-87
2022/04/05 09:10:11;;;;;;;15.17;6.13;;;11.40;99.90;;;;;;5047208;28;20295;-81
2022/04/05 09:12:45;;;;;;;14.47;5.40;;;11.50;99.90;;;;;;5052862;28;20351;-81
2022/04/05 09:15:25;;;;;;;16.47;5.37;;;11.50;99.90;;;;;;5058951;28;21025;-81
2022/04/05 09:17:53;;;;;;;16.60;5.60;;;11.50;99.90;;;;;;5052550;28;20198;-84
2022/04/05 09:20:24;;;;;;;15.77;6.70;;;11.50;99.90;;;;;;5047576;28;20206;-82
2022/04/05 09:22:54;;;;;;;13.17;5.10;;;11.60;99.90;;;;;;5047429;28;20216;-82
2022/04/05 09:25:21;;;;;;;16.37;6.93;;;11.60;99.90;;;;;;5049079;28;20272;-84
2022/04/05 09:27:50;;;;;;;16.20;5.30;;;11.70;99.90;;;;;;5068067;28;20558;-81
2022/04/05 09:30:19;;;;;;;14.00;5.23;;;11.70;99.90;;;;;;5061158;28;20217;-82
2022/04/05 09:32:48;;;;;;;16.03;5.77;;;11.80;99.90;;;;;;5048388;28;20201;-83
2022/04/05 09:35:18;;;;;;;18.33;4.93;;;11.80;99.90;;;;;;5047984;28;20679;-84
2022/04/05 09:37:48;;;;;;;15.80;5.63;;;11.80;99.90;;;;;;5048353;28;20285;-82
2022/04/05 09:40:22;;;;;;;18.50;5.83;;;11.90;99.90;;;;;;5047916;28;20222;-82
2022/04/05 09:43:00;;;;;;;11.37;5.20;;;11.90;99.90;;;;;;5050049;28;20197;-82
2022/04/05 09:45:43;;;;;;;11.70;5.03;;;11.90;99.90;;;;;;5070252;28;20233;-84
2022/04/05 09:48:10;;;;;;;15.97;5.63;;;11.90;99.90;;;;;;5075417;28;20518;-83
2022/04/05 09:50:59;;;;;;;11.13;5.60;;;12.00;99.90;;;;;;5082896;28;20201;-87
2022/04/05 09:53:41;;;;;;;16.10;5.80;;;11.90;99.90;;;;;;5089010;28;20190;-86
2022/04/05 09:56:11;;;;;;;16.20;5.80;;;11.90;99.90;;;;;;5093578;28;20205;-84
2022/04/05 09:58:44;;;;;;;15.70;6.17;;;11.90;99.90;;;;;;5088193;28;21026;-82
2022/04/05 10:01:11;;;;;;;9.60;4.43;;;11.80;99.90;;;;;;5085415;28;20197;-83
2022/04/05 10:03:40;;;;;;;14.67;5.63;;;11.80;99.90;;;;;;5088194;28;20216;-84
2022/04/05 10:06:07;;;;;;;18.07;5.70;;;11.70;99.90;;;;;;5079301;28;20279;-83
2022/04/05 10:08:36;;;;;;;12.80;5.40;;;11.70;99.90;;;;;;5069596;28;20208;-81
2022/04/05 10:11:04;;;;;;;11.63;5.70;;;11.80;99.90;;;;;;5069804;28;20212;-83
2022/04/05 10:13:32;;;;;;;14.43;5.50;;;11.90;99.90;;;;;;5073007;28;20209;-81
2022/04/05 10:16:01;;;;;;;15.27;5.47;;;12.00;99.90;;;;;;5067540;28;20244;-79
2022/04/05 10:18:33;;;;;;;15.50;5.63;;;12.20;99.90;;;;;;5063347;28;20236;-81
2022/04/05 10:21:02;;;;;;;17.43;5.40;;;12.50;99.90;;;;;;5066424;28;20198;-80
2022/04/05 10:23:29;;;;;;;17.90;5.13;;;12.70;99.90;;;;;;5065179;28;20202;-83
2022/04/05 10:25:57;;;;;;;15.60;4.70;;;12.80;99.90;;;;;;5063354;28;20209;-86
2022/04/05 10:28:27;;;;;;;11.07;3.97;;;12.90;99.90;;;;;;5064270;28;20218;-84
2022/04/05 10:31:02;;;;;;;11.43;4.63;;;12.80;99.90;;;;;;5069011;28;20212;-82
2022/04/05 10:33:36;;;;;;;15.50;4.50;;;12.80;99.90;;;;;;5054403;28;20645;-83
2022/04/05 10:36:03;;;;;;;16.67;4.80;;;12.80;99.90;;;;;;5058649;22;20229;-81
2022/04/05 10:38:30;;;;;;;15.60;4.70;;;12.70;99.90;;;;;;5085758;28;20568;-80
2022/04/05 10:41:19;;;;;;;16.33;4.77;;;12.60;99.90;;;;;;5084183;28;20204;-81
2022/04/05 10:43:48;;;;;;;12.57;4.83;;;12.60;99.90;;;;;;5084276;28;20579;-80
2022/04/05 10:46:40;;;;;;;14.47;5.37;;;12.60;99.90;;;;;;5088841;28;20197;-78
2022/04/05 10:49:08;;;;;;;13.20;5.40;;;12.60;99.90;;;;;;5078063;28;20216;-78
2022/04/05 10:52:06;;;;;;;10.47;4.97;;;12.60;99.90;;;;;;5068506;28;20294;-79
2022/04/05 10:54:37;;;;;;;14.60;5.47;;;12.60;99.90;;;;;;5067419;28;20284;-79
2022/04/05 10:57:30;;;;;;;18.00;5.97;;;12.60;99.90;;;;;;5072509;28;20208;-78
2022/04/05 11:00:02;;;;;;;14.57;5.27;;;12.60;99.90;;;;;;5083544;28;20208;-82
2022/04/05 11:02:36;;;;;;;19.53;6.60;;;12.60;99.90;;;;;;5090110;28;20610;-79
2022/04/05 11:05:20;;;;;;;11.37;6.10;;;12.50;99.90;;;;;;5088837;28;20912;-79
2022/04/05 11:08:06;;;;;;;17.27;6.07;;;12.40;99.90;;;;;;5066658;28;20227;-82
2022/04/05 11:10:46;;;;;;;12.87;5.83;;;12.50;99.90;;;;;;5068904;28;20193;-78
2022/04/05 11:13:18;;;;;;;15.77;6.23;;;12.50;99.90;;;;;;5067511;28;20201;-81
2022/04/05 11:15:48;;;;;;;13.77;5.37;;;12.40;99.90;;;;;;5067263;28;20220;-80
2022/04/05 11:18:18;;;;;;;13.07;5.67;;;12.50;99.90;;;;;;5068204;28;20201;-80
2022/04/05 11:20:45;;;;;;;15.47;6.67;;;12.40;99.90;;;;;;5068078;28;20217;-79
2022/04/05 11:23:14;;;;;;;20.10;7.23;;;12.40;99.90;;;;;;5068386;28;20216;-80
2022/04/05 11:25:42;;;;;;;13.67;6.00;;;12.30;99.90;;;;;;5070728;28;20201;-81
2022/04/05 11:28:12;;;;;;;15.27;6.27;;;12.30;99.90;;;;;;5090682;28;20249;-80
2022/04/05 11:30:44;;;;;;;15.30;5.73;;;12.30;99.90;;;;;;5090354;28;20258;-82
2022/04/05 11:33:14;;;;;;;10.63;6.00;;;12.30;99.90;;;;;;5072385;28;20213;-80
2022/04/05 11:35:44;;;;;;;15.23;5.60;;;12.40;99.90;;;;;;5050714;28;20279;-80
2022/04/05 11:38:27;;;;;;;11.97;5.53;;;12.40;99.90;;;;;;5073260;28;20566;-82
2022/04/05 11:40:55;;;;;;;11.37;5.50;;;12.50;99.90;;;;;;5089245;28;20188;-79
2022/04/05 11:43:24;;;;;;;16.67;6.40;;;12.60;99.90;;;;;;5088338;28;20196;-78
2022/04/05 11:45:54;;;;;;;14.07;6.70;;;12.60;99.90;;;;;;5088851;28;20306;-80
2022/04/05 11:48:22;;;;;;;16.47;6.20;;;12.70;99.90;;;;;;5087857;28;20896;-80
2022/04/05 11:50:51;;;;;;;18.53;6.57;;;12.70;99.90;;;;;;5088393;28;20212;-80
2022/04/05 11:53:19;;;;;;;15.93;6.47;;;12.70;99.90;;;;;;5087523;28;20197;-80
2022/04/05 11:56:04;;;;;;;14.90;7.07;;;12.80;99.90;;;;;;5084893;28;20331;-79
2022/04/05 11:58:34;;;;;;;15.77;7.03;;;12.90;99.90;;;;;;5067910;28;20193;-81
2022/04/05 12:01:02;;;;;;;15.83;6.10;;;13.00;99.90;;;;;;5082610;28;20216;-79
2022/04/05 12:03:28;;;;;;;15.57;6.00;;;13.10;99.90;;;;;;5085993;28;20204;-80
2022/04/05 12:05:57;;;;;;;13.90;6.00;;;13.10;99.90;;;;;;5079731;28;20241;-79
2022/04/05 12:08:23;;;;;;;14.43;6.57;;;13.10;99.90;;;;;;5095767;28;20270;-80
2022/04/05 12:10:50;;;;;;;14.17;6.40;;;13.10;99.90;;;;;;5087135;28;20659;-80
2022/04/05 12:13:28;;;;;;;14.00;5.70;;;13.00;99.90;;;;;;5086714;28;20209;-79
2022/04/05 12:15:59;;;;;;;12.10;6.13;;;13.10;99.90;;;;;;5086586;28;20255;-80
2022/04/05 12:18:27;;;;;;;13.53;6.30;;;13.10;99.90;;;;;;5085808;28;20660;-80
2022/04/05 12:20:58;;;;;;;14.93;6.53;;;13.10;99.90;;;;;;5087751;28;20227;-80
2022/04/05 12:23:29;;;;;;;9.90;6.70;;;13.10;99.90;;;;;;5086571;28;20208;-81
2022/04/05 12:26:09;;;;;;;16.53;7.20;;;13.10;99.90;;;;;;5084119;28;20204;-81
2022/04/05 12:28:38;;;;;;;11.23;7.13;;;13.20;99.90;;;;;;5066615;28;20665;-80
2022/04/05 12:31:06;;;;;;;17.43;8.80;;;13.20;99.90;;;;;;5066666;28;20247;-82
2022/04/05 12:33:33;;;;;;;19.33;8.00;;;13.40;99.90;;;;;;5074164;28;20219;-81
2022/04/05 12:36:03;;;;;;;18.30;8.70;;;13.50;99.90;;;;;;5086623;28;20243;-80
2022/04/05 12:38:30;;;;;;;14.37;7.27;;;13.70;99.90;;;;;;5085665;28;20266;-82
2022/04/05 12:40:57;;;;;;;12.63;6.33;;;13.70;99.90;;;;;;5087041;28;20208;-81
2022/04/05 12:43:25;;;;;;;10.17;6.23;;;13.70;99.90;;;;;;5068335;28;20201;-80
2022/04/05 12:45:51;;;;;;;13.20;6.80;;;13.60;99.90;;;;;;5066337;28;20212;-79
2022/04/05 12:48:20;;;;;;;16.77;7.67;;;13.60;99.90;;;;;;5066066;28;20231;-81
2022/04/05 12:50:50;;;;;;;17.70;7.60;;;13.70;99.90;;;;;;5067771;28;20209;-81